Time;durP1;ratioP1;P1;durP2;ratioP2;P2;SDS_P1;SDS_P2;PMS_P1;PMS_P2;Temp;Humidity;BMP_temperature;BMP_pressure;BME280_temperature;BME280_humidity;BME280_pressure;Samples;Min_cycle;Max_cycle;Signal;HPM_P1;HPM_P2
2022/09/25 00:01:03;;;;;;;32.90;23.20;;;;;;;8.73;100.00;99351.97;5112078;28;20020;-75
2022/09/25 00:03:30;;;;;;;33.13;25.15;;;;;;;8.73;100.00;99349.38;5112583;28;20107;-75
2022/09/25 00:06:08;;;;;;;30.33;23.70;;;;;;;8.75;100.00;99352.72;5112417;28;20055;-75
2022/09/25 00:08:34;;;;;;;28.25;23.10;;;;;;;8.73;100.00;99346.75;5112233;28;20049;-75
2022/09/25 00:11:05;;;;;;;33.53;22.20;;;;;;;8.75;100.00;99358.75;5112206;28;20054;-75
2022/09/25 00:13:32;;;;;;;32.28;23.60;;;;;;;8.69;100.00;99346.06;5112170;28;20101;-75
2022/09/25 00:15:58;;;;;;;30.45;21.38;;;;;;;8.69;100.00;99340.03;5112296;28;20061;-75
2022/09/25 00:21:13;;;;;;;32.13;22.90;;;;;;;8.77;100.00;99345.72;5112207;28;20039;-75
2022/09/25 00:23:40;;;;;;;33.97;24.08;;;;;;;8.80;100.00;99355.09;5112052;28;20547;-75
2022/09/25 00:26:07;;;;;;;33.10;24.50;;;;;;;8.75;100.00;99345.75;5110548;28;20027;-75
2022/09/25 00:28:36;;;;;;;43.15;29.52;;;;;;;8.78;100.00;99343.97;5113941;28;20085;-75
2022/09/25 00:31:03;;;;;;;49.25;31.15;;;;;;;8.77;100.00;99342.28;5116417;28;20038;-75
2022/09/25 00:33:29;;;;;;;46.47;30.77;;;;;;;8.76;100.00;99341.41;5116398;28;20464;-75
2022/09/25 00:35:55;;;;;;;50.72;30.63;;;;;;;8.80;100.00;99345.56;5116407;28;20102;-75
2022/09/25 00:38:20;;;;;;;44.35;29.30;;;;;;;8.82;100.00;99346.34;5115860;28;20114;-75
2022/09/25 00:40:45;;;;;;;38.65;25.17;;;;;;;8.85;100.00;99337.56;5116065;28;20098;-75
2022/09/25 00:43:15;;;;;;;34.33;24.23;;;;;;;8.87;100.00;99349.59;5116087;28;20026;-75
2022/09/25 00:45:42;;;;;;;34.50;25.40;;;;;;;8.89;100.00;99344.31;5116157;28;20111;-75
2022/09/25 00:48:13;;;;;;;32.38;23.17;;;;;;;8.82;100.00;99332.53;5115831;28;20027;-75
2022/09/25 00:50:48;;;;;;;27.30;20.63;;;;;;;8.88;100.00;99337.44;5116494;28;20070;-75
2022/09/25 00:53:27;;;;;;;27.73;22.17;;;;;;;8.79;100.00;99330.91;5115758;28;20027;-75
2022/09/25 00:55:54;;;;;;;34.45;25.42;;;;;;;8.74;100.00;99328.50;5116071;27;20030;-75
2022/09/25 00:58:22;;;;;;;33.25;27.23;;;;;;;8.66;100.00;99315.03;5115890;28;20024;-75
2022/09/25 01:00:50;;;;;;;43.42;30.77;;;;;;;8.70;100.00;99339.09;5115791;28;20019;-75
2022/09/25 01:03:17;;;;;;;36.85;27.13;;;;;;;8.58;100.00;99330.09;5115476;28;20357;-75
2022/09/25 01:05:44;;;;;;;40.72;31.30;;;;;;;8.59;100.00;99336.97;5115442;28;20026;-75
2022/09/25 01:08:13;;;;;;;40.88;30.95;;;;;;;8.56;100.00;99336.28;5115202;28;20128;-75
2022/09/25 01:10:40;;;;;;;40.80;31.48;;;;;;;8.48;100.00;99331.41;5115668;28;20053;-75
2022/09/25 01:13:06;;;;;;;40.80;30.35;;;;;;;8.41;100.00;99323.03;5115459;28;20028;-75
2022/09/25 01:15:57;;;;;;;43.55;32.38;;;;;;;8.41;100.00;99333.41;5115455;28;20047;-75
2022/09/25 01:18:31;;;;;;;43.83;33.42;;;;;;;8.37;100.00;99333.59;5115434;28;20092;-75
2022/09/25 01:21:10;;;;;;;43.67;32.50;;;;;;;8.33;100.00;99330.25;5115434;28;20065;-75
2022/09/25 01:24:12;;;;;;;40.90;30.33;;;;;;;8.30;100.00;99335.59;5115557;28;20027;-75
2022/09/25 01:26:43;;;;;;;38.95;30.42;;;;;;;8.27;100.00;99330.53;5115187;28;20364;-75
2022/09/25 01:29:32;;;;;;;38.95;29.25;;;;;;;8.22;100.00;99330.72;5115274;28;20035;-75
2022/09/25 01:32:07;;;;;;;44.80;33.75;;;;;;;8.18;100.00;99328.34;5115180;28;20023;-75
2022/09/25 01:34:49;;;;;;;42.90;32.30;;;;;;;8.18;100.00;99344.75;5115034;28;20031;-75
2022/09/25 01:37:52;;;;;;;37.03;28.92;;;;;;;8.17;100.00;99337.00;5114865;28;20019;-75
2022/09/25 01:40:34;;;;;;;43.97;32.42;;;;;;;8.10;100.00;99330.41;5113571;28;20024;-75
2022/09/25 01:43:15;;;;;;;52.88;37.25;;;;;;;8.13;100.00;99336.31;5114777;28;20051;-75
2022/09/25 01:45:50;;;;;;;44.58;33.50;;;;;;;8.11;100.00;99345.06;5115049;28;20030;-75
2022/09/25 01:48:20;;;;;;;38.95;28.48;;;;;;;7.99;100.00;99336.84;5114679;28;20468;-75
2022/09/25 01:51:00;;;;;;;36.33;29.23;;;;;;;8.02;100.00;99343.69;5114804;28;20106;-75
2022/09/25 01:53:33;;;;;;;46.03;33.33;;;;;;;7.98;100.00;99342.13;5114609;28;20019;-75
2022/09/25 01:56:04;;;;;;;47.80;33.95;;;;;;;7.88;100.00;99333.88;5114781;28;20081;-75
2022/09/25 01:58:45;;;;;;;60.85;41.47;;;;;;;7.86;100.00;99335.69;5114844;28;20031;-75
2022/09/25 02:01:15;;;;;;;56.88;39.58;;;;;;;7.87;100.00;99342.53;5114498;28;20372;-75
2022/09/25 02:03:46;;;;;;;73.18;46.83;;;;;;;7.85;100.00;99343.53;5114576;28;20107;-75
2022/09/25 02:06:16;;;;;;;145.48;88.55;;;;;;;7.81;100.00;99337.63;5114356;28;20042;-75
2022/09/25 02:08:54;;;;;;;123.82;76.10;;;;;;;7.79;100.00;99344.59;5114854;28;20058;-75
2022/09/25 02:11:20;;;;;;;93.45;58.45;;;;;;;7.78;100.00;99348.09;5129409;27;20388;-75
2022/09/25 02:14:01;;;;;;;77.50;50.00;;;;;;;7.71;100.00;99344.06;5114468;27;20012;-75
2022/09/25 02:16:33;;;;;;;64.47;42.25;;;;;;;7.73;100.00;99355.22;5113945;28;20067;-75
2022/09/25 02:21:52;;;;;;;65.30;40.75;;;;;;;7.65;100.00;99334.78;5114476;28;20043;-75
2022/09/25 02:24:28;;;;;;;49.92;34.00;;;;;;;7.64;100.00;99324.50;5113958;28;20018;-75
2022/09/25 02:26:55;;;;;;;50.05;35.28;;;;;;;7.66;100.00;99336.47;5114092;28;20020;-75
2022/09/25 02:29:20;;;;;;;53.03;36.55;;;;;;;7.62;100.00;99339.25;5114008;28;20103;-75
2022/09/25 02:31:54;;;;;;;46.67;34.85;;;;;;;7.57;100.00;99323.88;5114267;28;20371;-75
2022/09/25 02:34:21;;;;;;;51.67;35.25;;;;;;;7.57;100.00;99325.63;5113799;28;20011;-75
2022/09/25 02:36:46;;;;;;;51.67;37.85;;;;;;;7.62;100.00;99327.13;5113762;28;20047;-75
2022/09/25 02:39:16;;;;;;;54.83;38.40;;;;;;;7.59;100.00;99313.47;5113895;28;20460;-75
2022/09/25 02:42:03;;;;;;;47.88;34.30;;;;;;;7.62;100.00;99326.28;5113911;28;20027;-75
2022/09/25 02:44:57;;;;;;;45.15;32.05;;;;;;;7.59;100.00;99324.69;5113555;28;20414;-75
2022/09/25 02:47:48;;;;;;;45.92;31.98;;;;;;;7.46;100.00;99310.53;5113192;28;20418;-75
2022/09/25 02:50:36;;;;;;;41.15;29.92;;;;;;;7.48;100.00;99330.28;5113537;28;20093;-75
2022/09/25 02:53:08;;;;;;;40.80;29.85;;;;;;;7.44;100.00;99333.88;5113708;28;20031;-75
2022/09/25 02:55:47;;;;;;;45.45;32.70;;;;;;;7.38;100.00;99328.09;5113394;28;20015;-75
2022/09/25 02:58:15;;;;;;;42.35;31.58;;;;;;;7.39;100.00;99328.03;5113174;28;20026;-75
2022/09/25 03:00:45;;;;;;;42.53;31.92;;;;;;;7.32;100.00;99320.56;5113416;28;20512;-75
2022/09/25 03:03:14;;;;;;;47.53;31.83;;;;;;;7.36;100.00;99322.97;5113228;28;20023;-75
2022/09/25 03:05:40;;;;;;;37.83;29.02;;;;;;;7.37;100.00;99321.22;5113327;28;20054;-75
2022/09/25 03:10:50;;;;;;;34.72;27.75;;;;;;;7.31;100.00;99314.53;5113556;28;20027;-75
2022/09/25 03:13:21;;;;;;;40.13;26.63;;;;;;;7.38;100.00;99328.09;5113394;28;20027;-75
2022/09/25 03:15:54;;;;;;;43.00;28.27;;;;;;;7.35;100.00;99317.84;5113232;28;20028;-75
2022/09/25 03:18:20;;;;;;;35.40;27.65;;;;;;;7.33;100.00;99299.78;5112999;28;20471;-75
2022/09/25 03:20:46;;;;;;;36.35;27.25;;;;;;;7.42;100.00;99311.53;5113152;28;20030;-75
2022/09/25 03:23:11;;;;;;;33.15;24.83;;;;;;;7.35;100.00;99303.16;5112859;28;20032;-75
2022/09/25 03:25:37;;;;;;;34.28;25.27;;;;;;;7.40;100.00;99303.81;5113222;28;20019;-75
2022/09/25 03:28:10;;;;;;;32.40;25.48;;;;;;;7.45;100.00;99304.47;5113063;28;20105;-75
2022/09/25 03:30:39;;;;;;;31.58;23.50;;;;;;;7.45;100.00;99303.63;5112846;28;20521;-75
2022/09/25 03:33:11;;;;;;;30.95;24.40;;;;;;;7.48;100.00;99298.34;5112866;28;20089;-75
2022/09/25 03:35:37;;;;;;;37.28;26.02;;;;;;;7.50;100.00;99299.13;5112595;28;20027;-75
2022/09/25 03:38:03;;;;;;;34.25;25.15;;;;;;;7.53;100.00;99293.81;5113066;28;20024;-75
2022/09/25 03:40:28;;;;;;;29.05;23.95;;;;;;;7.49;100.00;99295.66;5112616;28;20110;-75
2022/09/25 03:42:54;;;;;;;30.50;22.83;;;;;;;7.61;100.00;99303.88;5113068;28;20029;-75
2022/09/25 03:45:19;;;;;;;30.70;24.40;;;;;;;7.53;100.00;99298.16;5112507;28;20033;-75
2022/09/25 03:47:44;;;;;;;30.92;24.85;;;;;;;7.51;100.00;99295.63;5112712;28;20055;-75
2022/09/25 03:50:10;;;;;;;28.52;22.98;;;;;;;7.45;100.00;99286.31;5112509;28;20472;-75
2022/09/25 03:52:35;;;;;;;34.40;23.60;;;;;;;7.52;100.00;99293.88;5112537;28;20016;-75
2022/09/25 03:55:01;;;;;;;27.70;22.15;;;;;;;7.54;100.00;99308.44;5112764;28;20340;-76
2022/09/25 03:57:26;;;;;;;33.67;24.15;;;;;;;7.54;100.00;99299.81;5112374;28;20024;-75
2022/09/25 03:59:51;;;;;;;33.75;24.20;;;;;;;7.54;100.00;99292.88;5112502;28;20031;-76
2022/09/25 04:02:17;;;;;;;27.95;21.73;;;;;;;7.61;100.00;99302.13;5111892;28;20023;-75
2022/09/25 04:04:44;;;;;;;26.48;21.70;;;;;;;7.54;100.00;99289.47;5111929;28;20114;-76
2022/09/25 04:07:10;;;;;;;29.38;22.45;;;;;;;7.52;100.00;99280.91;5127036;27;20104;-75
2022/09/25 04:09:35;;;;;;;30.42;21.52;;;;;;;7.54;100.00;99294.66;5112258;28;20471;-75
2022/09/25 04:12:01;;;;;;;31.02;22.92;;;;;;;7.46;100.00;99287.19;5112494;28;20027;-75
2022/09/25 04:14:26;;;;;;;29.80;23.30;;;;;;;7.39;100.00;99286.59;5112027;28;20369;-76
2022/09/25 04:16:52;;;;;;;33.10;24.38;;;;;;;7.36;100.00;99293.63;5112194;28;20016;-75
2022/09/25 04:19:17;;;;;;;36.30;24.95;;;;;;;7.37;100.00;99303.91;5112034;28;20371;-75
2022/09/25 04:21:42;;;;;;;36.60;25.25;;;;;;;7.32;100.00;99303.25;5112352;28;20445;-75
2022/09/25 04:26:52;;;;;;;33.45;26.27;;;;;;;7.23;100.00;99299.28;5112307;28;20042;-76
2022/09/25 04:29:20;;;;;;;38.30;29.60;;;;;;;7.22;100.00;99305.38;5111919;28;20441;-75
2022/09/25 04:33:44;;;;;;;35.80;28.15;;;;;;;7.17;100.00;99304.72;5112072;28;20024;-76
2022/09/25 04:34:30;;;;;;;39.80;28.23;;;;;;;7.12;100.00;99298.88;5112083;28;20034;-75
2022/09/25 04:36:56;;;;;;;41.20;30.60;;;;;;;7.01;100.00;99288.06;5112143;28;20016;-75
2022/09/25 04:39:21;;;;;;;38.92;29.63;;;;;;;7.07;100.00;99286.97;5111923;28;20174;-75
2022/09/25 04:41:46;;;;;;;41.35;28.15;;;;;;;7.16;100.00;99297.84;5112085;28;20099;-75
2022/09/25 04:44:12;;;;;;;30.05;24.88;;;;;;;7.15;100.00;99296.13;5112152;28;20043;-75
2022/09/25 04:46:37;;;;;;;30.13;24.50;;;;;;;7.09;100.00;99285.19;5111698;28;20342;-75
2022/09/25 04:49:02;;;;;;;31.13;24.65;;;;;;;7.08;100.00;99283.47;5112039;28;20460;-75
2022/09/25 04:51:28;;;;;;;29.50;24.17;;;;;;;7.17;100.00;99294.34;5112067;28;20019;-75
2022/09/25 04:53:55;;;;;;;30.35;23.10;;;;;;;7.14;100.00;99284.09;5112015;28;20027;-76
2022/09/25 04:56:20;;;;;;;32.28;23.17;;;;;;;7.15;100.00;99282.34;5111711;28;20027;-75
2022/09/25 04:58:48;;;;;;;27.55;22.98;;;;;;;7.22;100.00;99295.00;5111834;28;20023;-75
2022/09/25 05:01:14;;;;;;;29.23;22.35;;;;;;;7.13;100.00;99281.59;5111904;28;20364;-75
2022/09/25 05:03:39;;;;;;;28.60;22.45;;;;;;;7.15;100.00;99288.38;5111690;28;20015;-75
2022/09/25 05:06:05;;;;;;;24.80;22.02;;;;;;;7.21;100.00;99292.50;5111820;28;20023;-75
2022/09/25 05:08:30;;;;;;;29.77;22.98;;;;;;;7.14;100.00;99286.69;5111698;28;20044;-75
2022/09/25 05:10:56;;;;;;;27.80;21.60;;;;;;;7.19;100.00;99294.28;5111715;28;20015;-75
2022/09/25 05:13:21;;;;;;;32.00;24.33;;;;;;;7.13;100.00;99286.75;5111435;28;20387;-75
2022/09/25 05:15:47;;;;;;;30.65;23.55;;;;;;;7.19;100.00;99294.28;5115251;28;20351;-75
2022/09/25 05:18:16;;;;;;;31.42;24.02;;;;;;;7.21;100.00;99293.34;5115360;27;20047;-75
2022/09/25 05:20:42;;;;;;;28.67;22.27;;;;;;;7.38;100.00;99300.44;5115435;28;20027;-76
2022/09/25 05:23:08;;;;;;;30.65;24.08;;;;;;;7.51;100.00;99287.84;5114253;28;20031;-76
2022/09/25 05:25:33;;;;;;;26.08;23.20;;;;;;;7.67;100.00;99278.56;5115139;28;20024;-75
2022/09/25 05:28:00;;;;;;;27.60;22.70;;;;;;;7.94;100.00;99294.72;5115181;28;20110;-75
2022/09/25 05:30:29;;;;;;;31.58;22.95;;;;;;;8.13;100.00;99289.63;5115613;28;20086;-75
2022/09/25 05:32:57;;;;;;;26.70;21.58;;;;;;;8.41;100.00;99294.47;5115269;28;20034;-75
2022/09/25 05:35:23;;;;;;;30.08;22.95;;;;;;;8.64;100.00;99295.25;5114906;28;20029;-76
2022/09/25 05:37:48;;;;;;;30.60;25.02;;;;;;;8.74;100.00;99299.94;5115237;28;20023;-76
2022/09/25 05:40:15;;;;;;;27.67;23.65;;;;;;;8.83;100.00;99298.69;5115181;28;20069;-76
2022/09/25 05:42:42;;;;;;;23.92;21.15;;;;;;;8.79;100.00;99288.50;5114776;28;20529;-76
2022/09/25 05:45:11;;;;;;;26.08;22.60;;;;;;;8.96;100.00;99301.56;5115290;28;20364;-76
2022/09/25 05:47:38;;;;;;;33.95;24.77;;;;;;;9.24;100.00;99307.19;5114952;28;20114;-76
2022/09/25 05:50:03;;;;;;;32.67;25.75;;;;;;;9.50;100.00;99299.91;5115098;28;20094;-76
2022/09/25 05:52:30;;;;;;;34.90;26.70;;;;;;;9.89;100.00;99302.34;5114997;28;20115;-75
2022/09/25 05:54:55;;;;;;;36.90;28.35;;;;;;;9.99;100.00;99280.16;5114732;28;20021;-76
2022/09/25 05:57:21;;;;;;;31.10;26.80;;;;;;;10.36;100.00;99295.69;5114214;28;20138;-76
2022/09/25 05:59:48;;;;;;;31.70;26.60;;;;;;;10.57;100.00;99281.56;5114799;28;20070;-75
2022/09/25 06:02:14;;;;;;;32.97;26.98;;;;;;;11.03;100.00;99305.16;5114864;28;20076;-76
2022/09/25 06:04:40;;;;;;;32.35;26.83;;;;;;;11.23;100.00;99301.50;5114348;28;20368;-76
2022/09/25 06:07:05;;;;;;;29.73;25.40;;;;;;;11.48;100.00;99295.75;5113195;28;20032;-76
2022/09/25 06:09:31;;;;;;;27.95;24.65;;;;;;;11.86;100.00;99283.19;5114384;28;20471;-76
2022/09/25 06:11:56;;;;;;;29.33;24.98;;;;;;;12.15;98.75;99299.75;5114272;28;20031;-75
2022/09/25 06:14:22;;;;;;;34.75;25.98;;;;;;;12.17;97.71;99284.00;5114319;28;20086;-76
2022/09/25 06:16:50;;;;;;;31.48;25.48;;;;;;;12.27;97.16;99305.19;5114424;28;20020;-76
2022/09/25 06:19:16;;;;;;;32.05;25.08;;;;;;;12.08;96.39;99289.75;5114658;28;20016;-76
2022/09/25 06:21:42;;;;;;;28.02;22.58;;;;;;;12.11;96.79;99295.66;5113954;28;20092;-76
2022/09/25 06:24:09;;;;;;;30.88;23.17;;;;;;;11.92;96.41;99292.41;5114263;28;20016;-76
2022/09/25 06:26:34;;;;;;;26.30;22.58;;;;;;;11.91;97.01;99294.19;5113228;28;20438;-76
2022/09/25 06:28:59;;;;;;;27.83;22.75;;;;;;;12.06;97.01;99297.69;5114191;28;20123;-76
2022/09/25 06:31:25;;;;;;;27.98;23.30;;;;;;;12.69;96.46;99299.16;5114121;28;20055;-76
2022/09/25 06:33:51;;;;;;;25.40;21.02;;;;;;;13.61;93.10;99290.78;5114185;28;20020;-76
2022/09/25 06:36:16;;;;;;;27.92;21.88;;;;;;;13.95;90.97;99276.34;5113877;28;20157;-76
2022/09/25 06:38:42;;;;;;;24.70;21.88;;;;;;;14.31;88.39;99283.50;5113661;28;20038;-75
2022/09/25 06:41:07;;;;;;;23.75;20.20;;;;;;;15.21;84.88;99290.38;5114050;28;20439;-76
2022/09/25 06:43:32;;;;;;;26.00;20.25;;;;;;;14.83;82.73;99293.09;5113739;28;20425;-76
2022/09/25 06:46:00;;;;;;;22.75;18.40;;;;;;;14.79;83.36;99286.38;5113824;28;20401;-76
2022/09/25 06:48:26;;;;;;;19.67;15.88;;;;;;;15.06;82.91;99294.06;5113708;28;20015;-76
2022/09/25 06:50:54;;;;;;;20.85;16.05;;;;;;;15.18;81.46;99289.75;5113808;28;20038;-76
2022/09/25 06:53:20;;;;;;;22.10;17.20;;;;;;;15.22;81.88;99291.22;5113653;28;20034;-76
2022/09/25 06:55:46;;;;;;;20.23;16.15;;;;;;;15.47;81.22;99288.50;5113197;28;20019;-76
2022/09/25 06:58:22;;;;;;;16.83;14.85;;;;;;;15.93;80.79;99281.69;5113691;28;20020;-76
2022/09/25 07:00:50;;;;;;;18.15;15.02;;;;;;;16.62;78.68;99279.06;5113514;28;20135;-76
2022/09/25 07:06:02;;;;;;;18.95;14.27;;;;;;;17.99;73.10;99267.19;5113516;28;20476;-76
2022/09/25 07:08:27;;;;;;;16.00;12.98;;;;;;;18.08;72.55;99279.59;5112979;28;20044;-76
2022/09/25 07:10:55;;;;;;;15.98;12.98;;;;;;;18.25;71.95;99275.56;5113549;27;20024;-76
2022/09/25 07:13:27;;;;;;;17.58;13.25;;;;;;;18.00;72.15;99283.84;5113547;28;20026;-76
2022/09/25 07:16:14;;;;;;;14.05;11.95;;;;;;;20.23;69.01;99284.56;5113210;28;20016;-76
2022/09/25 07:18:39;;;;;;;13.00;11.60;;;;;;;22.96;60.72;99272.72;5113025;28;20023;-76
2022/09/25 07:21:11;;;;;;;12.50;10.55;;;;;;;25.19;57.29;99289.34;5113012;28;20085;-76
2022/09/25 07:23:37;;;;;;;11.25;10.02;;;;;;;26.61;53.62;99281.63;5113191;28;20027;-76
2022/09/25 07:26:08;;;;;;;12.48;10.05;;;;;;;27.28;50.85;99291.38;5113425;28;20341;-76
2022/09/25 07:28:34;;;;;;;11.00;8.85;;;;;;;27.30;50.15;99288.50;5112909;27;20020;-76
2022/09/25 07:31:16;;;;;;;11.45;8.65;;;;;;;26.73;50.49;99284.69;5111680;28;20016;-76
2022/09/25 07:33:42;;;;;;;11.13;9.20;;;;;;;26.43;49.76;99291.00;5112944;28;20427;-76
2022/09/25 07:36:08;;;;;;;10.30;9.18;;;;;;;26.80;47.40;99285.59;5113019;28;20103;-76
2022/09/25 07:38:35;;;;;;;11.70;9.48;;;;;;;28.12;45.06;99292.66;5111815;28;20022;-76
2022/09/25 07:41:02;;;;;;;10.18;8.77;;;;;;;26.94;46.32;99286.59;5112876;28;20024;-76
2022/09/25 07:43:27;;;;;;;8.75;7.82;;;;;;;25.68;48.87;99276.56;5112478;28;20020;-76
2022/09/25 07:45:53;;;;;;;10.35;7.97;;;;;;;24.53;51.49;99286.91;5113259;28;20038;-76
2022/09/25 07:48:22;;;;;;;13.02;9.98;;;;;;;23.68;53.29;99278.41;5112926;28;20019;-76
2022/09/25 07:50:48;;;;;;;10.15;9.07;;;;;;;22.86;54.16;99293.25;5112705;28;20133;-76
2022/09/25 07:53:17;;;;;;;10.23;8.25;;;;;;;21.85;56.33;99290.19;5112709;28;20035;-76
2022/09/25 07:55:43;;;;;;;10.68;9.25;;;;;;;21.29;57.95;99288.63;5112292;28;20051;-76
2022/09/25 07:58:09;;;;;;;9.27;8.38;;;;;;;20.85;59.36;99280.47;5112652;28;20032;-76
2022/09/25 08:00:34;;;;;;;12.52;7.93;;;;;;;20.57;59.91;99277.81;5112330;28;20384;-76
2022/09/25 08:02:59;;;;;;;9.07;7.82;;;;;;;20.47;60.57;99282.25;5117299;27;20452;-76
2022/09/25 08:05:26;;;;;;;8.57;7.68;;;;;;;20.44;60.57;99279.91;5124071;27;20030;-76
2022/09/25 08:07:53;;;;;;;8.80;7.90;;;;;;;20.27;61.08;99283.25;5118704;27;20642;-76
2022/09/25 08:10:18;;;;;;;8.18;7.30;;;;;;;20.21;61.78;99284.66;5112513;28;20027;-76
2022/09/25 08:12:44;;;;;;;9.98;8.98;;;;;;;19.87;62.09;99273.72;5131171;27;20023;-76
2022/09/25 08:15:10;;;;;;;11.05;7.90;;;;;;;19.76;63.34;99274.69;5133203;27;20027;-76
2022/09/25 08:17:35;;;;;;;9.90;7.88;;;;;;;19.65;63.73;99288.03;5132814;27;20027;-76
2022/09/25 08:20:01;;;;;;;9.00;7.50;;;;;;;19.48;65.14;99278.97;5124492;27;20080;-76
2022/09/25 08:22:27;;;;;;;7.97;7.18;;;;;;;19.28;64.76;99271.97;5112256;28;20023;-76
2022/09/25 08:24:52;;;;;;;10.13;8.52;;;;;;;18.99;64.02;99277.16;5111927;28;20026;-76
2022/09/25 08:27:18;;;;;;;8.27;7.47;;;;;;;18.87;65.66;99263.25;5111952;28;20028;-76
2022/09/25 08:29:43;;;;;;;8.93;7.82;;;;;;;18.84;66.03;99267.00;5112060;28;20024;-76
2022/09/25 08:32:08;;;;;;;9.73;7.70;;;;;;;18.81;66.43;99258.50;5112183;28;20094;-76
2022/09/25 08:34:35;;;;;;;7.88;7.05;;;;;;;18.85;66.31;99263.38;5111913;28;20046;-76
2022/09/25 08:37:00;;;;;;;9.73;7.40;;;;;;;18.79;66.85;99260.44;5119799;28;20019;-76
2022/09/25 08:39:26;;;;;;;15.50;7.38;;;;;;;18.64;66.27;99259.94;5132592;27;20026;-76
2022/09/25 08:41:53;;;;;;;9.93;8.55;;;;;;;18.18;66.91;99243.59;5132218;27;20070;-76
2022/09/25 08:44:34;;;;;;;11.20;7.57;;;;;;;17.93;67.60;99251.91;5132693;27;20366;-76
2022/09/25 08:50:05;;;;;;;10.77;8.10;;;;;;;17.61;69.04;99246.59;5134612;27;20065;-76
2022/09/25 08:52:31;;;;;;;10.27;9.00;;;;;;;17.57;69.12;99253.94;5136792;27;20046;-76
2022/09/25 08:54:57;;;;;;;8.90;7.82;;;;;;;17.47;69.25;99253.00;5136460;27;20509;-76
2022/09/25 08:57:42;;;;;;;13.48;8.18;;;;;;;17.45;69.85;99234.72;5136482;27;20050;-76
2022/09/25 09:00:23;;;;;;;9.82;8.70;;;;;;;17.41;69.88;99241.19;5136445;27;20019;-76
2022/09/25 09:02:53;;;;;;;12.07;9.50;;;;;;;17.20;70.12;99235.88;5135973;27;20460;-76
2022/09/25 09:05:26;;;;;;;8.60;7.70;;;;;;;17.31;69.84;99234.16;5136597;27;20030;-76
2022/09/25 09:07:57;;;;;;;9.23;7.43;;;;;;;17.17;69.18;99230.00;5136018;27;20059;-76
2022/09/25 09:10:40;;;;;;;11.02;7.68;;;;;;;17.26;69.71;99231.91;5134993;27;20362;-76
2022/09/25 09:13:22;;;;;;;8.82;7.93;;;;;;;17.14;69.17;99232.88;5115480;28;20593;-76
2022/09/25 09:15:54;;;;;;;8.30;7.43;;;;;;;16.94;69.90;99216.09;5115577;28;20020;-76
2022/09/25 09:18:24;;;;;;;8.23;6.55;;;;;;;17.02;70.14;99224.16;5115493;28;20031;-76
2022/09/25 09:21:00;;;;;;;11.07;7.53;;;;;;;17.14;70.56;99225.81;5115168;27;20433;-76
2022/09/25 09:23:39;;;;;;;7.97;6.68;;;;;;;17.19;70.36;99218.41;5115375;28;20062;-78
2022/09/25 09:26:12;;;;;;;8.32;6.50;;;;;;;17.33;70.92;99225.19;5114466;28;20406;-76
2022/09/25 09:29:16;;;;;;;9.40;7.05;;;;;;;17.48;70.83;99220.44;5115231;28;20357;-77
2022/09/25 09:31:53;;;;;;;8.20;6.75;;;;;;;17.37;69.67;99204.72;5072210;28;20116;-76
2022/09/25 09:34:39;;;;;;;8.57;7.00;;;;;;;17.31;70.65;99224.47;5072225;28;20154;-76
2022/09/25 09:37:17;;;;;;;9.30;7.88;;;;;;;17.44;70.99;99224.28;5071861;28;20082;-76
2022/09/25 09:40:01;;;;;;;8.55;6.85;;;;;;;17.53;71.35;99205.13;5071842;28;20039;-76
2022/09/25 09:42:48;;;;;;;9.80;7.28;;;;;;;17.62;71.16;99214.06;5072023;28;20062;-76
2022/09/25 09:45:24;;;;;;;10.60;7.40;;;;;;;17.62;71.31;99204.38;5071800;28;20115;-76
2022/09/25 09:48:08;;;;;;;8.63;7.60;;;;;;;17.57;71.56;99211.81;5071617;28;20164;-76
2022/09/25 09:50:48;;;;;;;10.15;7.63;;;;;;;17.41;71.18;99201.72;5071740;28;20376;-76
2022/09/25 09:53:27;;;;;;;;;;;;;;;17.52;72.54;99200.81;5072230;28;20052;-76
2022/09/25 09:55:59;;;;;;;9.77;6.97;;;;;;;17.59;72.44;99199.34;5071453;28;19915;-76
2022/09/25 09:58:36;;;;;;;9.27;6.93;;;;;;;17.56;70.51;99188.22;5071596;28;20115;-76
2022/09/25 10:01:03;;;;;;;10.77;8.07;;;;;;;17.65;70.40;99190.91;5070440;28;20028;-76
2022/09/25 10:03:35;;;;;;;8.20;7.40;;;;;;;17.71;70.65;99193.06;5071704;28;20178;-76
2022/09/25 10:06:07;;;;;;;8.93;6.95;;;;;;;17.65;70.08;99188.28;5071367;28;20079;-76
2022/09/25 10:08:33;;;;;;;8.82;7.70;;;;;;;17.54;68.72;99182.28;5090030;28;20133;-76
2022/09/25 10:11:02;;;;;;;8.88;7.28;;;;;;;17.54;69.12;99179.63;5120260;27;20483;-76
2022/09/25 10:13:36;;;;;;;8.10;6.95;;;;;;;17.62;69.08;99179.84;5133236;27;20119;-76
2022/09/25 10:16:10;;;;;;;8.98;7.10;;;;;;;17.45;68.88;99163.63;5134816;27;20023;-76
2022/09/25 10:18:47;;;;;;;9.60;7.60;;;;;;;17.56;67.36;99190.84;5134876;27;20047;-76
2022/09/25 10:21:17;;;;;;;10.40;7.70;;;;;;;17.54;65.91;99179.63;5134483;27;20015;-76
2022/09/25 10:23:45;;;;;;;6.38;5.78;;;;;;;17.51;66.85;99178.06;5134514;27;20102;-76
2022/09/25 10:26:32;;;;;;;12.05;6.18;;;;;;;17.67;67.86;99185.53;5134394;27;20543;-76
2022/09/25 10:28:59;;;;;;;9.32;5.95;;;;;;;17.76;68.42;99189.25;5134293;27;20027;-76
2022/09/25 10:31:37;;;;;;;18.92;7.95;;;;;;;17.80;68.47;99182.75;5134270;27;20080;-76
2022/09/25 10:34:12;;;;;;;7.75;6.32;;;;;;;17.77;67.10;99186.47;5134481;27;20049;-76
2022/09/25 10:36:46;;;;;;;7.10;6.40;;;;;;;17.78;67.17;99177.63;5134109;27;20025;-77
2022/09/25 10:39:24;;;;;;;8.05;7.00;;;;;;;17.79;68.13;99168.75;5134091;27;20039;-77
2022/09/25 10:41:50;;;;;;;8.07;7.28;;;;;;;17.74;67.11;99181.47;5134078;27;20023;-76
2022/09/25 10:44:32;;;;;;;7.32;6.55;;;;;;;17.79;66.79;99181.09;5134219;27;20020;-77
2022/09/25 10:50:13;;;;;;;9.93;7.65;;;;;;;17.75;66.38;99169.97;5134086;27;20375;-76
2022/09/25 10:53:06;;;;;;;7.65;6.45;;;;;;;17.74;67.44;99165.69;5133848;27;20030;-76
2022/09/25 10:55:50;;;;;;;8.13;7.10;;;;;;;17.75;66.88;99166.50;5134256;27;20043;-76
2022/09/25 10:58:31;;;;;;;9.23;7.55;;;;;;;17.74;66.74;99170.06;5133313;27;20075;-76
2022/09/25 11:01:00;;;;;;;9.48;7.15;;;;;;;17.60;67.76;99158.88;5133672;27;20023;-76
2022/09/25 11:03:34;;;;;;;8.20;7.18;;;;;;;17.69;68.91;99162.53;5133481;27;20030;-76
2022/09/25 11:06:38;;;;;;;14.63;7.50;;;;;;;17.78;68.78;99156.56;5131337;27;20298;-77
2022/09/25 11:09:19;;;;;;;7.95;7.05;;;;;;;17.86;68.30;99159.34;5090201;28;20039;-76
2022/09/25 11:11:48;;;;;;;6.95;6.25;;;;;;;17.96;68.74;99159.44;5077082;28;20079;-77
2022/09/25 11:14:31;;;;;;;7.28;6.20;;;;;;;18.00;67.40;99149.47;5070009;28;20035;-76
2022/09/25 11:16:58;;;;;;;7.28;5.38;;;;;;;18.02;67.76;99148.34;5069693;28;20036;-77
2022/09/25 11:19:27;;;;;;;7.13;6.18;;;;;;;18.10;68.18;99139.78;5069985;28;20071;-77
2022/09/25 11:21:58;;;;;;;8.00;6.88;;;;;;;18.13;68.66;99142.19;5069613;28;20077;-77
2022/09/25 11:24:59;;;;;;;8.05;6.70;;;;;;;18.16;68.42;99136.63;5069718;28;20032;-77
2022/09/25 11:27:43;;;;;;;9.00;6.90;;;;;;;18.18;67.17;99139.97;4990432;28;20044;-77
2022/09/25 11:30:18;;;;;;;7.00;6.00;;;;;;;18.25;67.20;99140.28;4990889;28;20125;-77
2022/09/25 11:33:22;;;;;;;7.13;6.43;;;;;;;18.40;66.18;99147.69;4990011;28;20480;-77
2022/09/25 11:36:12;;;;;;;6.68;5.68;;;;;;;18.44;65.46;99135.06;4970606;28;20495;-77
2022/09/25 11:41:45;;;;;;;6.07;5.15;;;;;;;18.53;63.27;99139.53;4971549;28;20531;-77
2022/09/25 11:44:33;;;;;;;6.35;5.60;;;;;;;18.57;64.36;99140.94;4971164;28;20073;-77
2022/09/25 11:47:15;;;;;;;7.40;6.53;;;;;;;18.50;63.96;99141.59;4970802;28;20042;-77
2022/09/25 11:49:41;;;;;;;7.40;5.88;;;;;;;18.40;64.08;99145.03;4969740;28;20033;-77
2022/09/25 11:52:44;;;;;;;6.53;5.40;;;;;;;18.59;64.65;99143.44;4970575;28;20046;-77
2022/09/25 11:55:15;;;;;;;6.75;6.05;;;;;;;18.70;64.51;99133.63;4970827;28;20026;-77
2022/09/25 11:58:08;;;;;;;6.72;5.85;;;;;;;18.80;64.05;99136.31;4970379;28;20503;-77
2022/09/25 12:00:46;;;;;;;8.10;5.60;;;;;;;18.82;64.32;99137.00;4970605;28;20034;-77
2022/09/25 12:03:14;;;;;;;6.13;5.43;;;;;;;18.75;64.62;99138.53;4970390;28;20037;-77